sensor_id;sensor_type;location;lat;lon;timestamp;P1;durP1;ratioP1;P2;durP2;ratioP2
5929;SDS011;2990;48.746;9.236;2022-07-29T00:00:03;919.83;;;849.50;;
5929;SDS011;2990;48.746;9.236;2022-07-29T00:02:31;953.17;;;879.10;;
5929;SDS011;2990;48.746;9.236;2022-07-29T00:04:57;778.03;;;723.65;;
5929;SDS011;2990;48.746;9.236;2022-07-29T00:07:22;877.03;;;812.22;;
5929;SDS011;2990;48.746;9.236;2022-07-29T00:09:48;817.78;;;760.30;;
5929;SDS011;2990;48.746;9.236;2022-07-29T00:12:14;700.65;;;652.92;;
5929;SDS011;2990;48.746;9.236;2022-07-29T00:14:39;602.75;;;563.05;;
5929;SDS011;2990;48.746;9.236;2022-07-29T00:17:05;676.58;;;630.85;;
5929;SDS011;2990;48.746;9.236;2022-07-29T00:19:30;715.03;;;665.33;;
5929;SDS011;2990;48.746;9.236;2022-07-29T00:21:56;748.15;;;696.13;;
5929;SDS011;2990;48.746;9.236;2022-07-29T00:24:21;669.97;;;624.63;;
5929;SDS011;2990;48.746;9.236;2022-07-29T00:26:47;820.42;;;761.92;;
5929;SDS011;2990;48.746;9.236;2022-07-29T00:29:12;767.70;;;714.55;;
5929;SDS011;2990;48.746;9.236;2022-07-29T00:31:38;756.88;;;704.85;;
5929;SDS011;2990;48.746;9.236;2022-07-29T00:34:03;827.10;;;768.03;;
5929;SDS011;2990;48.746;9.236;2022-07-29T00:36:29;894.25;;;828.50;;
5929;SDS011;2990;48.746;9.236;2022-07-29T00:38:54;946.92;;;874.70;;
5929;SDS011;2990;48.746;9.236;2022-07-29T00:41:20;930.05;;;859.10;;
5929;SDS011;2990;48.746;9.236;2022-07-29T00:43:46;947.00;;;873.75;;
5929;SDS011;2990;48.746;9.236;2022-07-29T00:46:12;979.30;;;902.78;;
5929;SDS011;2990;48.746;9.236;2022-07-29T00:48:37;1002.17;;;923.58;;
5929;SDS011;2990;48.746;9.236;2022-07-29T00:51:04;944.45;;;872.20;;
5929;SDS011;2990;48.746;9.236;2022-07-29T00:53:30;960.13;;;886.20;;
5929;SDS011;2990;48.746;9.236;2022-07-29T00:55:57;988.22;;;910.50;;
5929;SDS011;2990;48.746;9.236;2022-07-29T00:58:23;948.45;;;876.08;;
5929;SDS011;2990;48.746;9.236;2022-07-29T01:00:50;917.85;;;848.05;;
5929;SDS011;2990;48.746;9.236;2022-07-29T01:03:15;969.17;;;895.50;;
5929;SDS011;2990;48.746;9.236;2022-07-29T01:05:41;949.70;;;876.10;;
5929;SDS011;2990;48.746;9.236;2022-07-29T01:08:08;934.47;;;863.78;;
5929;SDS011;2990;48.746;9.236;2022-07-29T01:10:35;938.38;;;867.85;;
5929;SDS011;2990;48.746;9.236;2022-07-29T01:13:03;947.70;;;875.70;;
5929;SDS011;2990;48.746;9.236;2022-07-29T01:15:29;982.03;;;907.28;;
5929;SDS011;2990;48.746;9.236;2022-07-29T01:17:59;975.72;;;901.25;;
5929;SDS011;2990;48.746;9.236;2022-07-29T01:20:41;978.28;;;902.22;;
5929;SDS011;2990;48.746;9.236;2022-07-29T01:31:42;952.35;;;880.63;;
5929;SDS011;2990;48.746;9.236;2022-07-29T01:34:22;948.83;;;876.28;;
5929;SDS011;2990;48.746;9.236;2022-07-29T01:36:57;957.58;;;885.13;;
5929;SDS011;2990;48.746;9.236;2022-07-29T01:39:42;904.47;;;837.75;;
5929;SDS011;2990;48.746;9.236;2022-07-29T01:47:42;913.65;;;846.30;;
5929;SDS011;2990;48.746;9.236;2022-07-29T01:50:40;934.25;;;864.15;;
5929;SDS011;2990;48.746;9.236;2022-07-29T01:53:12;956.50;;;883.28;;
5929;SDS011;2990;48.746;9.236;2022-07-29T01:55:44;994.53;;;918.08;;
5929;SDS011;2990;48.746;9.236;2022-07-29T01:58:10;992.08;;;915.80;;
5929;SDS011;2990;48.746;9.236;2022-07-29T02:00:39;972.85;;;899.15;;
5929;SDS011;2990;48.746;9.236;2022-07-29T02:03:11;951.95;;;879.70;;
5929;SDS011;2990;48.746;9.236;2022-07-29T02:05:39;962.75;;;889.17;;
5929;SDS011;2990;48.746;9.236;2022-07-29T02:08:07;993.53;;;916.22;;
5929;SDS011;2990;48.746;9.236;2022-07-29T02:10:34;987.90;;;910.33;;
5929;SDS011;2990;48.746;9.236;2022-07-29T02:13:02;1002.13;;;923.38;;
5929;SDS011;2990;48.746;9.236;2022-07-29T02:15:29;997.90;;;919.47;;
5929;SDS011;2990;48.746;9.236;2022-07-29T02:18:01;981.92;;;905.88;;
5929;SDS011;2990;48.746;9.236;2022-07-29T02:20:33;981.53;;;905.42;;
5929;SDS011;2990;48.746;9.236;2022-07-29T02:22:59;1001.78;;;921.85;;
5929;SDS011;2990;48.746;9.236;2022-07-29T02:25:26;996.67;;;917.47;;
5929;SDS011;2990;48.746;9.236;2022-07-29T02:27:53;984.80;;;907.92;;
5929;SDS011;2990;48.746;9.236;2022-07-29T02:30:20;1032.00;;;948.65;;
5929;SDS011;2990;48.746;9.236;2022-07-29T02:32:48;1002.78;;;923.53;;
5929;SDS011;2990;48.746;9.236;2022-07-29T02:35:15;997.33;;;917.75;;
5929;SDS011;2990;48.746;9.236;2022-07-29T02:37:42;993.80;;;915.28;;
5929;SDS011;2990;48.746;9.236;2022-07-29T02:40:10;1026.88;;;946.50;;
5929;SDS011;2990;48.746;9.236;2022-07-29T02:42:39;984.45;;;908.38;;
5929;SDS011;2990;48.746;9.236;2022-07-29T02:45:07;947.42;;;873.63;;
5929;SDS011;2990;48.746;9.236;2022-07-29T02:47:34;978.95;;;903.08;;
5929;SDS011;2990;48.746;9.236;2022-07-29T02:50:13;992.08;;;915.97;;
5929;SDS011;2990;48.746;9.236;2022-07-29T02:52:47;976.42;;;901.38;;
5929;SDS011;2990;48.746;9.236;2022-07-29T02:58:29;976.03;;;901.42;;
5929;SDS011;2990;48.746;9.236;2022-07-29T03:01:04;973.45;;;899.03;;
5929;SDS011;2990;48.746;9.236;2022-07-29T03:03:45;990.55;;;912.92;;
5929;SDS011;2990;48.746;9.236;2022-07-29T03:06:13;979.20;;;902.92;;
5929;SDS011;2990;48.746;9.236;2022-07-29T03:08:42;1023.13;;;941.72;;
5929;SDS011;2990;48.746;9.236;2022-07-29T03:11:08;1052.55;;;967.30;;
5929;SDS011;2990;48.746;9.236;2022-07-29T03:13:34;1063.63;;;974.38;;
5929;SDS011;2990;48.746;9.236;2022-07-29T03:16:00;1061.35;;;973.45;;
5929;SDS011;2990;48.746;9.236;2022-07-29T03:18:27;1053.57;;;965.35;;
5929;SDS011;2990;48.746;9.236;2022-07-29T03:20:53;1046.80;;;958.53;;
5929;SDS011;2990;48.746;9.236;2022-07-29T03:23:20;1069.00;;;977.60;;
5929;SDS011;2990;48.746;9.236;2022-07-29T03:25:49;1313.47;;;994.80;;
5929;SDS011;2990;48.746;9.236;2022-07-29T03:28:15;1070.25;;;978.55;;
5929;SDS011;2990;48.746;9.236;2022-07-29T03:30:40;1999.90;;;999.90;;
5929;SDS011;2990;48.746;9.236;2022-07-29T03:33:06;1999.90;;;999.90;;
5929;SDS011;2990;48.746;9.236;2022-07-29T03:35:31;1999.90;;;999.90;;
5929;SDS011;2990;48.746;9.236;2022-07-29T03:37:57;1999.90;;;999.90;;
5929;SDS011;2990;48.746;9.236;2022-07-29T03:40:33;1999.90;;;999.90;;
5929;SDS011;2990;48.746;9.236;2022-07-29T03:43:03;1999.90;;;999.90;;
5929;SDS011;2990;48.746;9.236;2022-07-29T03:45:30;1999.90;;;999.90;;
5929;SDS011;2990;48.746;9.236;2022-07-29T03:47:59;1999.90;;;999.90;;
5929;SDS011;2990;48.746;9.236;2022-07-29T03:50:31;1999.90;;;999.90;;
5929;SDS011;2990;48.746;9.236;2022-07-29T03:52:58;1999.90;;;999.90;;
5929;SDS011;2990;48.746;9.236;2022-07-29T03:55:24;1999.90;;;999.90;;
5929;SDS011;2990;48.746;9.236;2022-07-29T03:57:51;1999.90;;;999.90;;
5929;SDS011;2990;48.746;9.236;2022-07-29T04:00:17;1999.90;;;999.90;;
5929;SDS011;2990;48.746;9.236;2022-07-29T04:02:44;1999.90;;;999.90;;
5929;SDS011;2990;48.746;9.236;2022-07-29T04:05:13;1999.90;;;999.90;;
5929;SDS011;2990;48.746;9.236;2022-07-29T04:07:40;1999.90;;;999.90;;
5929;SDS011;2990;48.746;9.236;2022-07-29T04:10:08;1999.90;;;999.90;;
5929;SDS011;2990;48.746;9.236;2022-07-29T04:12:34;1999.90;;;999.90;;
5929;SDS011;2990;48.746;9.236;2022-07-29T04:15:00;1999.90;;;999.90;;
5929;SDS011;2990;48.746;9.236;2022-07-29T04:17:26;1999.90;;;999.90;;
5929;SDS011;2990;48.746;9.236;2022-07-29T04:19:52;1057.07;;;967.00;;
5929;SDS011;2990;48.746;9.236;2022-07-29T04:22:17;1077.95;;;985.50;;
5929;SDS011;2990;48.746;9.236;2022-07-29T04:24:43;1301.88;;;983.78;;
5929;SDS011;2990;48.746;9.236;2022-07-29T04:27:08;1065.32;;;974.13;;
5929;SDS011;2990;48.746;9.236;2022-07-29T04:29:34;1048.90;;;960.63;;
5929;SDS011;2990;48.746;9.236;2022-07-29T04:31:59;1065.80;;;976.67;;
5929;SDS011;2990;48.746;9.236;2022-07-29T04:34:25;1061.72;;;972.67;;
5929;SDS011;2990;48.746;9.236;2022-07-29T04:36:51;1542.07;;;996.13;;
5929;SDS011;2990;48.746;9.236;2022-07-29T04:39:16;1299.55;;;980.25;;
5929;SDS011;2990;48.746;9.236;2022-07-29T04:41:43;1535.13;;;989.65;;
5929;SDS011;2990;48.746;9.236;2022-07-29T04:44:09;1529.55;;;984.75;;
5929;SDS011;2990;48.746;9.236;2022-07-29T04:46:35;1014.67;;;929.30;;
5929;SDS011;2990;48.746;9.236;2022-07-29T04:49:02;1039.53;;;954.58;;
5929;SDS011;2990;48.746;9.236;2022-07-29T04:51:28;1024.68;;;941.85;;
5929;SDS011;2990;48.746;9.236;2022-07-29T04:53:54;1024.93;;;942.08;;
5929;SDS011;2990;48.746;9.236;2022-07-29T04:56:19;1010.83;;;930.83;;
5929;SDS011;2990;48.746;9.236;2022-07-29T04:58:45;1007.13;;;927.00;;
5929;SDS011;2990;48.746;9.236;2022-07-29T05:01:11;981.75;;;905.28;;
5929;SDS011;2990;48.746;9.236;2022-07-29T05:03:37;969.45;;;896.35;;
5929;SDS011;2990;48.746;9.236;2022-07-29T05:06:02;943.67;;;872.33;;
5929;SDS011;2990;48.746;9.236;2022-07-29T05:08:28;884.67;;;818.00;;
5929;SDS011;2990;48.746;9.236;2022-07-29T05:10:54;920.60;;;852.53;;
5929;SDS011;2990;48.746;9.236;2022-07-29T05:13:19;906.03;;;838.10;;
5929;SDS011;2990;48.746;9.236;2022-07-29T05:15:45;868.47;;;805.22;;
5929;SDS011;2990;48.746;9.236;2022-07-29T05:18:10;853.55;;;792.22;;
5929;SDS011;2990;48.746;9.236;2022-07-29T05:20:36;864.42;;;802.00;;
5929;SDS011;2990;48.746;9.236;2022-07-29T05:23:02;874.42;;;811.35;;
5929;SDS011;2990;48.746;9.236;2022-07-29T05:25:28;877.70;;;814.40;;
5929;SDS011;2990;48.746;9.236;2022-07-29T05:27:55;876.70;;;812.65;;
5929;SDS011;2990;48.746;9.236;2022-07-29T05:30:21;923.38;;;854.63;;
5929;SDS011;2990;48.746;9.236;2022-07-29T05:32:47;889.45;;;823.65;;
5929;SDS011;2990;48.746;9.236;2022-07-29T05:35:13;906.33;;;837.92;;
5929;SDS011;2990;48.746;9.236;2022-07-29T05:37:39;930.47;;;859.85;;
5929;SDS011;2990;48.746;9.236;2022-07-29T05:40:05;917.00;;;848.70;;
5929;SDS011;2990;48.746;9.236;2022-07-29T05:42:31;885.40;;;820.92;;
5929;SDS011;2990;48.746;9.236;2022-07-29T05:44:57;794.40;;;738.42;;
5929;SDS011;2990;48.746;9.236;2022-07-29T05:47:23;537.53;;;504.25;;
5929;SDS011;2990;48.746;9.236;2022-07-29T05:49:49;546.55;;;512.20;;
5929;SDS011;2990;48.746;9.236;2022-07-29T05:52:15;522.70;;;490.35;;
5929;SDS011;2990;48.746;9.236;2022-07-29T05:54:41;410.73;;;386.75;;
5929;SDS011;2990;48.746;9.236;2022-07-29T05:57:07;357.23;;;337.35;;
5929;SDS011;2990;48.746;9.236;2022-07-29T05:59:36;267.70;;;254.23;;
5929;SDS011;2990;48.746;9.236;2022-07-29T06:02:02;228.00;;;216.80;;
5929;SDS011;2990;48.746;9.236;2022-07-29T06:04:29;301.33;;;285.33;;
5929;SDS011;2990;48.746;9.236;2022-07-29T06:06:56;298.10;;;282.60;;
5929;SDS011;2990;48.746;9.236;2022-07-29T06:09:24;197.68;;;188.30;;
5929;SDS011;2990;48.746;9.236;2022-07-29T06:11:51;148.57;;;141.93;;
5929;SDS011;2990;48.746;9.236;2022-07-29T06:14:17;139.23;;;133.13;;
5929;SDS011;2990;48.746;9.236;2022-07-29T06:16:43;411.02;;;387.70;;
5929;SDS011;2990;48.746;9.236;2022-07-29T06:19:09;687.13;;;640.45;;
5929;SDS011;2990;48.746;9.236;2022-07-29T06:21:35;724.45;;;675.50;;
5929;SDS011;2990;48.746;9.236;2022-07-29T06:24:01;662.13;;;617.08;;
5929;SDS011;2990;48.746;9.236;2022-07-29T06:26:26;667.88;;;622.45;;
5929;SDS011;2990;48.746;9.236;2022-07-29T06:28:52;796.70;;;741.33;;
5929;SDS011;2990;48.746;9.236;2022-07-29T06:31:18;943.80;;;872.25;;
5929;SDS011;2990;48.746;9.236;2022-07-29T06:33:44;979.67;;;903.53;;
5929;SDS011;2990;48.746;9.236;2022-07-29T06:36:09;1999.90;;;999.90;;
5929;SDS011;2990;48.746;9.236;2022-07-29T06:38:35;1999.90;;;999.90;;
5929;SDS011;2990;48.746;9.236;2022-07-29T06:41:00;1999.90;;;999.90;;
5929;SDS011;2990;48.746;9.236;2022-07-29T06:43:31;1999.90;;;999.90;;
5929;SDS011;2990;48.746;9.236;2022-07-29T06:46:02;1999.90;;;999.90;;
5929;SDS011;2990;48.746;9.236;2022-07-29T06:48:29;1999.90;;;999.90;;
5929;SDS011;2990;48.746;9.236;2022-07-29T06:50:55;1999.90;;;999.90;;
5929;SDS011;2990;48.746;9.236;2022-07-29T06:53:21;1999.90;;;999.90;;
5929;SDS011;2990;48.746;9.236;2022-07-29T06:55:46;1999.90;;;999.90;;
5929;SDS011;2990;48.746;9.236;2022-07-29T06:58:12;1999.90;;;999.90;;
5929;SDS011;2990;48.746;9.236;2022-07-29T07:00:40;1999.90;;;999.90;;
5929;SDS011;2990;48.746;9.236;2022-07-29T07:03:06;1999.90;;;999.90;;
5929;SDS011;2990;48.746;9.236;2022-07-29T07:05:32;1999.90;;;999.90;;
5929;SDS011;2990;48.746;9.236;2022-07-29T07:07:57;1999.90;;;999.90;;
5929;SDS011;2990;48.746;9.236;2022-07-29T07:10:23;1999.90;;;999.90;;
5929;SDS011;2990;48.746;9.236;2022-07-29T07:12:48;1999.90;;;999.90;;
5929;SDS011;2990;48.746;9.236;2022-07-29T07:15:14;1999.90;;;999.90;;
5929;SDS011;2990;48.746;9.236;2022-07-29T07:17:39;1999.90;;;999.90;;
5929;SDS011;2990;48.746;9.236;2022-07-29T07:20:05;1999.90;;;999.90;;
5929;SDS011;2990;48.746;9.236;2022-07-29T07:22:31;1999.90;;;999.90;;
5929;SDS011;2990;48.746;9.236;2022-07-29T07:24:57;1999.90;;;999.90;;
5929;SDS011;2990;48.746;9.236;2022-07-29T07:27:22;1262.43;;;999.90;;
5929;SDS011;2990;48.746;9.236;2022-07-29T07:29:48;1251.50;;;999.90;;
5929;SDS011;2990;48.746;9.236;2022-07-29T07:32:13;1233.20;;;999.90;;
5929;SDS011;2990;48.746;9.236;2022-07-29T07:34:41;1278.25;;;999.90;;
5929;SDS011;2990;48.746;9.236;2022-07-29T07:37:07;1279.25;;;999.90;;
5929;SDS011;2990;48.746;9.236;2022-07-29T07:39:33;1185.70;;;999.90;;
5929;SDS011;2990;48.746;9.236;2022-07-29T07:41:59;1242.90;;;999.90;;
5929;SDS011;2990;48.746;9.236;2022-07-29T07:44:24;1249.35;;;999.90;;
5929;SDS011;2990;48.746;9.236;2022-07-29T07:46:50;1255.20;;;999.90;;
5929;SDS011;2990;48.746;9.236;2022-07-29T07:49:16;1292.47;;;999.90;;
5929;SDS011;2990;48.746;9.236;2022-07-29T07:51:42;1256.40;;;999.90;;
5929;SDS011;2990;48.746;9.236;2022-07-29T07:54:10;1269.65;;;999.90;;
5929;SDS011;2990;48.746;9.236;2022-07-29T07:56:38;1064.00;;;976.80;;
5929;SDS011;2990;48.746;9.236;2022-07-29T07:59:04;976.58;;;902.42;;
5929;SDS011;2990;48.746;9.236;2022-07-29T08:01:30;845.42;;;786.67;;
5929;SDS011;2990;48.746;9.236;2022-07-29T08:03:55;856.28;;;795.60;;
5929;SDS011;2990;48.746;9.236;2022-07-29T08:06:21;731.28;;;681.83;;
5929;SDS011;2990;48.746;9.236;2022-07-29T08:08:48;810.75;;;754.67;;
5929;SDS011;2990;48.746;9.236;2022-07-29T08:11:14;721.05;;;672.10;;
5929;SDS011;2990;48.746;9.236;2022-07-29T08:13:39;454.27;;;427.13;;
5929;SDS011;2990;48.746;9.236;2022-07-29T08:16:05;506.23;;;474.27;;
5929;SDS011;2990;48.746;9.236;2022-07-29T08:18:40;197.18;;;186.93;;
5929;SDS011;2990;48.746;9.236;2022-07-29T08:21:06;154.60;;;146.80;;
5929;SDS011;2990;48.746;9.236;2022-07-29T08:23:32;66.50;;;63.53;;
5929;SDS011;2990;48.746;9.236;2022-07-29T08:26:10;82.07;;;77.70;;
5929;SDS011;2990;48.746;9.236;2022-07-29T08:28:37;87.25;;;83.25;;
5929;SDS011;2990;48.746;9.236;2022-07-29T08:31:03;118.00;;;112.70;;
5929;SDS011;2990;48.746;9.236;2022-07-29T08:33:29;170.95;;;162.98;;
5929;SDS011;2990;48.746;9.236;2022-07-29T08:35:55;178.25;;;169.80;;
5929;SDS011;2990;48.746;9.236;2022-07-29T08:38:21;324.15;;;306.77;;
5929;SDS011;2990;48.746;9.236;2022-07-29T08:40:46;392.67;;;370.38;;
5929;SDS011;2990;48.746;9.236;2022-07-29T08:43:12;376.38;;;355.60;;
5929;SDS011;2990;48.746;9.236;2022-07-29T08:45:42;519.60;;;487.67;;
5929;SDS011;2990;48.746;9.236;2022-07-29T08:48:12;748.13;;;696.80;;
5929;SDS011;2990;48.746;9.236;2022-07-29T08:50:40;775.08;;;721.58;;
5929;SDS011;2990;48.746;9.236;2022-07-29T08:53:07;718.03;;;669.08;;
5929;SDS011;2990;48.746;9.236;2022-07-29T08:55:36;805.30;;;749.95;;
5929;SDS011;2990;48.746;9.236;2022-07-29T08:58:04;802.30;;;747.00;;
5929;SDS011;2990;48.746;9.236;2022-07-29T09:00:30;838.88;;;780.47;;
5929;SDS011;2990;48.746;9.236;2022-07-29T09:02:57;850.10;;;789.95;;
5929;SDS011;2990;48.746;9.236;2022-07-29T09:05:24;821.30;;;763.58;;
5929;SDS011;2990;48.746;9.236;2022-07-29T09:07:51;783.47;;;729.28;;
5929;SDS011;2990;48.746;9.236;2022-07-29T09:10:17;812.88;;;756.10;;
5929;SDS011;2990;48.746;9.236;2022-07-29T09:12:43;845.92;;;786.75;;
5929;SDS011;2990;48.746;9.236;2022-07-29T09:15:10;852.85;;;792.33;;
5929;SDS011;2990;48.746;9.236;2022-07-29T09:17:39;849.03;;;788.30;;
5929;SDS011;2990;48.746;9.236;2022-07-29T09:20:15;867.05;;;804.80;;
5929;SDS011;2990;48.746;9.236;2022-07-29T09:22:43;853.85;;;793.05;;
5929;SDS011;2990;48.746;9.236;2022-07-29T09:25:11;859.88;;;798.55;;
5929;SDS011;2990;48.746;9.236;2022-07-29T09:27:37;855.53;;;794.55;;
5929;SDS011;2990;48.746;9.236;2022-07-29T09:32:29;865.15;;;802.92;;
5929;SDS011;2990;48.746;9.236;2022-07-29T09:38:09;1118.85;;;825.30;;
5929;SDS011;2990;48.746;9.236;2022-07-29T09:40:35;1999.90;;;999.90;;
5929;SDS011;2990;48.746;9.236;2022-07-29T09:43:09;858.30;;;796.92;;
5929;SDS011;2990;48.746;9.236;2022-07-29T09:45:38;1999.90;;;999.90;;
5929;SDS011;2990;48.746;9.236;2022-07-29T09:48:17;1999.90;;;999.90;;
5929;SDS011;2990;48.746;9.236;2022-07-29T09:50:45;1999.90;;;999.90;;
5929;SDS011;2990;48.746;9.236;2022-07-29T09:53:28;1999.90;;;999.90;;
5929;SDS011;2990;48.746;9.236;2022-07-29T09:55:55;1999.90;;;999.90;;
5929;SDS011;2990;48.746;9.236;2022-07-29T09:58:21;1999.90;;;999.90;;
5929;SDS011;2990;48.746;9.236;2022-07-29T10:00:48;1999.90;;;999.90;;
5929;SDS011;2990;48.746;9.236;2022-07-29T10:03:14;1999.90;;;999.90;;
5929;SDS011;2990;48.746;9.236;2022-07-29T10:05:41;1999.90;;;999.90;;
5929;SDS011;2990;48.746;9.236;2022-07-29T10:08:07;1999.90;;;999.90;;
5929;SDS011;2990;48.746;9.236;2022-07-29T10:10:37;1999.90;;;999.90;;
5929;SDS011;2990;48.746;9.236;2022-07-29T10:13:04;1999.90;;;999.90;;
5929;SDS011;2990;48.746;9.236;2022-07-29T10:15:31;1999.90;;;999.90;;
5929;SDS011;2990;48.746;9.236;2022-07-29T10:17:58;1999.90;;;999.90;;
5929;SDS011;2990;48.746;9.236;2022-07-29T10:20:25;1999.90;;;999.90;;
5929;SDS011;2990;48.746;9.236;2022-07-29T10:22:51;1999.90;;;999.90;;
5929;SDS011;2990;48.746;9.236;2022-07-29T10:25:17;1999.90;;;999.90;;
5929;SDS011;2990;48.746;9.236;2022-07-29T10:27:44;1999.90;;;999.90;;
5929;SDS011;2990;48.746;9.236;2022-07-29T10:30:11;1999.90;;;999.90;;
5929;SDS011;2990;48.746;9.236;2022-07-29T10:32:46;1999.90;;;999.90;;
5929;SDS011;2990;48.746;9.236;2022-07-29T10:35:15;1999.90;;;999.90;;
5929;SDS011;2990;48.746;9.236;2022-07-29T10:43:06;1999.90;;;999.90;;
5929;SDS011;2990;48.746;9.236;2022-07-29T10:45:34;1999.90;;;999.90;;
5929;SDS011;2990;48.746;9.236;2022-07-29T10:48:03;1999.90;;;999.90;;
5929;SDS011;2990;48.746;9.236;2022-07-29T10:50:52;1999.90;;;999.90;;
5929;SDS011;2990;48.746;9.236;2022-07-29T10:53:19;1999.90;;;999.90;;
5929;SDS011;2990;48.746;9.236;2022-07-29T10:55:46;1999.90;;;999.90;;
5929;SDS011;2990;48.746;9.236;2022-07-29T10:58:14;1999.90;;;999.90;;
5929;SDS011;2990;48.746;9.236;2022-07-29T11:00:41;1999.90;;;999.90;;
5929;SDS011;2990;48.746;9.236;2022-07-29T11:03:07;1999.90;;;999.90;;
5929;SDS011;2990;48.746;9.236;2022-07-29T11:05:54;1999.90;;;999.90;;
5929;SDS011;2990;48.746;9.236;2022-07-29T11:08:21;1999.90;;;999.90;;
5929;SDS011;2990;48.746;9.236;2022-07-29T11:10:51;1999.90;;;999.90;;
5929;SDS011;2990;48.746;9.236;2022-07-29T11:16:03;583.92;;;546.00;;
5929;SDS011;2990;48.746;9.236;2022-07-29T11:18:30;235.55;;;223.35;;
5929;SDS011;2990;48.746;9.236;2022-07-29T11:20:56;659.33;;;612.30;;
5929;SDS011;2990;48.746;9.236;2022-07-29T11:23:28;1998.15;;;999.90;;
5929;SDS011;2990;48.746;9.236;2022-07-29T11:31:19;1253.40;;;999.90;;
5929;SDS011;2990;48.746;9.236;2022-07-29T11:34:19;1999.90;;;999.90;;
5929;SDS011;2990;48.746;9.236;2022-07-29T11:39:30;497.30;;;465.63;;
5929;SDS011;2990;48.746;9.236;2022-07-29T11:47:39;1136.20;;;999.90;;
5929;SDS011;2990;48.746;9.236;2022-07-29T11:50:06;1999.90;;;999.90;;
5929;SDS011;2990;48.746;9.236;2022-07-29T11:52:33;1999.90;;;999.90;;
5929;SDS011;2990;48.746;9.236;2022-07-29T11:55:02;1999.90;;;999.90;;
5929;SDS011;2990;48.746;9.236;2022-07-29T11:57:29;1999.90;;;999.90;;
5929;SDS011;2990;48.746;9.236;2022-07-29T11:59:55;1999.90;;;999.90;;
5929;SDS011;2990;48.746;9.236;2022-07-29T12:02:21;1999.90;;;999.90;;
5929;SDS011;2990;48.746;9.236;2022-07-29T12:04:56;1999.90;;;999.90;;
5929;SDS011;2990;48.746;9.236;2022-07-29T12:07:27;1999.90;;;999.90;;
5929;SDS011;2990;48.746;9.236;2022-07-29T12:09:54;1999.90;;;999.90;;
5929;SDS011;2990;48.746;9.236;2022-07-29T12:12:20;1999.90;;;999.90;;
5929;SDS011;2990;48.746;9.236;2022-07-29T12:14:46;1999.90;;;999.90;;
5929;SDS011;2990;48.746;9.236;2022-07-29T12:17:28;1999.90;;;999.90;;
5929;SDS011;2990;48.746;9.236;2022-07-29T12:19:56;1999.90;;;999.90;;
5929;SDS011;2990;48.746;9.236;2022-07-29T12:22:28;1999.90;;;999.90;;
5929;SDS011;2990;48.746;9.236;2022-07-29T12:24:54;1999.90;;;999.90;;
5929;SDS011;2990;48.746;9.236;2022-07-29T12:27:21;1999.90;;;999.90;;
5929;SDS011;2990;48.746;9.236;2022-07-29T12:29:55;1999.90;;;999.90;;
5929;SDS011;2990;48.746;9.236;2022-07-29T12:32:22;1394.65;;;999.90;;
5929;SDS011;2990;48.746;9.236;2022-07-29T12:34:48;1999.90;;;999.90;;
5929;SDS011;2990;48.746;9.236;2022-07-29T12:37:14;1999.90;;;999.90;;
5929;SDS011;2990;48.746;9.236;2022-07-29T12:39:40;1999.90;;;999.90;;
5929;SDS011;2990;48.746;9.236;2022-07-29T12:42:10;1999.90;;;999.90;;
5929;SDS011;2990;48.746;9.236;2022-07-29T12:44:43;1999.90;;;999.90;;
5929;SDS011;2990;48.746;9.236;2022-07-29T12:47:09;1999.90;;;999.90;;
5929;SDS011;2990;48.746;9.236;2022-07-29T12:49:35;1999.90;;;999.90;;
5929;SDS011;2990;48.746;9.236;2022-07-29T12:52:01;1999.90;;;999.90;;
5929;SDS011;2990;48.746;9.236;2022-07-29T12:54:47;1999.90;;;999.90;;
5929;SDS011;2990;48.746;9.236;2022-07-29T12:57:13;1999.90;;;999.90;;
5929;SDS011;2990;48.746;9.236;2022-07-29T12:59:39;1999.90;;;999.90;;
5929;SDS011;2990;48.746;9.236;2022-07-29T13:02:05;1999.90;;;999.90;;
5929;SDS011;2990;48.746;9.236;2022-07-29T13:04:32;1999.90;;;999.90;;
5929;SDS011;2990;48.746;9.236;2022-07-29T13:07:07;1999.90;;;999.90;;
5929;SDS011;2990;48.746;9.236;2022-07-29T13:09:43;1999.90;;;999.90;;
5929;SDS011;2990;48.746;9.236;2022-07-29T13:12:13;1999.90;;;999.90;;
5929;SDS011;2990;48.746;9.236;2022-07-29T13:14:40;1999.90;;;999.90;;
5929;SDS011;2990;48.746;9.236;2022-07-29T13:17:07;1999.90;;;999.90;;
5929;SDS011;2990;48.746;9.236;2022-07-29T13:19:46;1999.90;;;999.90;;
5929;SDS011;2990;48.746;9.236;2022-07-29T13:22:14;1999.90;;;999.90;;
5929;SDS011;2990;48.746;9.236;2022-07-29T13:24:54;1999.90;;;999.90;;
5929;SDS011;2990;48.746;9.236;2022-07-29T13:27:24;1999.90;;;999.90;;
5929;SDS011;2990;48.746;9.236;2022-07-29T13:29:51;1999.90;;;999.90;;
5929;SDS011;2990;48.746;9.236;2022-07-29T13:32:18;1999.90;;;999.90;;
5929;SDS011;2990;48.746;9.236;2022-07-29T13:34:44;1999.90;;;999.90;;
5929;SDS011;2990;48.746;9.236;2022-07-29T13:37:10;1999.90;;;999.90;;
5929;SDS011;2990;48.746;9.236;2022-07-29T13:39:36;1999.90;;;999.90;;
5929;SDS011;2990;48.746;9.236;2022-07-29T13:42:02;1999.90;;;999.90;;
5929;SDS011;2990;48.746;9.236;2022-07-29T13:44:28;1999.90;;;999.90;;
5929;SDS011;2990;48.746;9.236;2022-07-29T13:46:54;639.45;;;585.58;;
5929;SDS011;2990;48.746;9.236;2022-07-29T13:49:20;833.88;;;767.70;;
5929;SDS011;2990;48.746;9.236;2022-07-29T13:51:48;928.90;;;857.75;;
5929;SDS011;2990;48.746;9.236;2022-07-29T13:54:14;871.55;;;806.20;;
5929;SDS011;2990;48.746;9.236;2022-07-29T13:56:40;704.95;;;653.47;;
5929;SDS011;2990;48.746;9.236;2022-07-29T13:59:06;555.97;;;516.25;;
5929;SDS011;2990;48.746;9.236;2022-07-29T14:01:33;502.08;;;466.95;;
5929;SDS011;2990;48.746;9.236;2022-07-29T14:03:59;398.65;;;372.70;;
5929;SDS011;2990;48.746;9.236;2022-07-29T14:06:25;419.70;;;390.88;;
5929;SDS011;2990;48.746;9.236;2022-07-29T14:08:51;436.38;;;404.77;;
5929;SDS011;2990;48.746;9.236;2022-07-29T14:11:17;474.80;;;440.17;;
5929;SDS011;2990;48.746;9.236;2022-07-29T14:13:43;479.20;;;442.75;;
5929;SDS011;2990;48.746;9.236;2022-07-29T14:16:09;430.08;;;398.05;;
5929;SDS011;2990;48.746;9.236;2022-07-29T14:18:35;388.35;;;361.65;;
5929;SDS011;2990;48.746;9.236;2022-07-29T14:21:00;390.70;;;363.33;;
5929;SDS011;2990;48.746;9.236;2022-07-29T14:23:27;413.98;;;385.85;;
5929;SDS011;2990;48.746;9.236;2022-07-29T14:25:53;449.38;;;418.25;;
5929;SDS011;2990;48.746;9.236;2022-07-29T14:28:19;755.15;;;700.58;;
5929;SDS011;2990;48.746;9.236;2022-07-29T14:30:44;646.45;;;599.00;;
5929;SDS011;2990;48.746;9.236;2022-07-29T14:33:10;511.40;;;474.77;;
5929;SDS011;2990;48.746;9.236;2022-07-29T14:35:35;448.92;;;417.10;;
5929;SDS011;2990;48.746;9.236;2022-07-29T14:38:01;541.85;;;502.65;;
5929;SDS011;2990;48.746;9.236;2022-07-29T14:40:27;574.78;;;532.92;;
5929;SDS011;2990;48.746;9.236;2022-07-29T14:42:52;539.88;;;500.95;;
5929;SDS011;2990;48.746;9.236;2022-07-29T14:45:18;555.60;;;515.83;;
5929;SDS011;2990;48.746;9.236;2022-07-29T14:47:43;551.15;;;511.25;;
5929;SDS011;2990;48.746;9.236;2022-07-29T14:50:09;505.73;;;470.20;;
5929;SDS011;2990;48.746;9.236;2022-07-29T14:52:35;476.52;;;442.98;;
5929;SDS011;2990;48.746;9.236;2022-07-29T14:55:01;435.52;;;405.85;;
5929;SDS011;2990;48.746;9.236;2022-07-29T14:57:27;452.52;;;421.80;;
5929;SDS011;2990;48.746;9.236;2022-07-29T14:59:53;455.33;;;424.33;;
5929;SDS011;2990;48.746;9.236;2022-07-29T15:02:20;452.25;;;420.70;;